sensor_id;sensor_type;location;lat;lon;timestamp;temperature;humidity
17172;DHT22;8701;50.150;8.756;2023-03-13T00:01:10;8.80;99.90
17172;DHT22;8701;50.150;8.756;2023-03-13T00:05:22;8.80;99.90
17172;DHT22;8701;50.150;8.756;2023-03-13T00:09:24;8.90;99.90
17172;DHT22;8701;50.150;8.756;2023-03-13T00:13:27;8.90;99.90
17172;DHT22;8701;50.150;8.756;2023-03-13T00:17:29;9.00;99.90
17172;DHT22;8701;50.150;8.756;2023-03-13T00:21:35;9.40;99.90
17172;DHT22;8701;50.150;8.756;2023-03-13T00:25:38;9.40;99.90
17172;DHT22;8701;50.150;8.756;2023-03-13T00:29:40;9.40;99.90
17172;DHT22;8701;50.150;8.756;2023-03-13T00:33:44;9.50;99.90
17172;DHT22;8701;50.150;8.756;2023-03-13T00:37:48;9.50;99.90
17172;DHT22;8701;50.150;8.756;2023-03-13T00:41:51;9.60;99.90
17172;DHT22;8701;50.150;8.756;2023-03-13T00:45:53;9.70;99.90
17172;DHT22;8701;50.150;8.756;2023-03-13T00:49:55;9.70;99.90
17172;DHT22;8701;50.150;8.756;2023-03-13T00:54:01;9.70;99.90
17172;DHT22;8701;50.150;8.756;2023-03-13T00:58:04;9.70;99.90
17172;DHT22;8701;50.150;8.756;2023-03-13T01:02:07;9.70;99.90
17172;DHT22;8701;50.150;8.756;2023-03-13T01:06:12;9.70;99.90
17172;DHT22;8701;50.150;8.756;2023-03-13T01:10:16;9.80;99.90
17172;DHT22;8701;50.150;8.756;2023-03-13T01:14:19;9.80;99.90
17172;DHT22;8701;50.150;8.756;2023-03-13T01:18:27;9.90;99.90
17172;DHT22;8701;50.150;8.756;2023-03-13T01:22:29;9.90;99.90
17172;DHT22;8701;50.150;8.756;2023-03-13T01:26:32;9.90;99.90
17172;DHT22;8701;50.150;8.756;2023-03-13T01:30:35;9.90;99.90
17172;DHT22;8701;50.150;8.756;2023-03-13T01:34:39;9.90;99.90
17172;DHT22;8701;50.150;8.756;2023-03-13T01:38:42;9.90;99.90
17172;DHT22;8701;50.150;8.756;2023-03-13T01:42:55;9.90;99.90
17172;DHT22;8701;50.150;8.756;2023-03-13T01:46:58;9.90;99.90
17172;DHT22;8701;50.150;8.756;2023-03-13T01:51:03;9.90;99.90
17172;DHT22;8701;50.150;8.756;2023-03-13T01:55:09;9.90;99.90
17172;DHT22;8701;50.150;8.756;2023-03-13T01:59:21;10.00;99.90
17172;DHT22;8701;50.150;8.756;2023-03-13T02:03:24;10.00;99.90
17172;DHT22;8701;50.150;8.756;2023-03-13T02:07:31;10.00;99.90
17172;DHT22;8701;50.150;8.756;2023-03-13T02:11:45;10.00;99.90
17172;DHT22;8701;50.150;8.756;2023-03-13T02:15:50;10.10;99.90
17172;DHT22;8701;50.150;8.756;2023-03-13T02:19:55;10.10;99.90
17172;DHT22;8701;50.150;8.756;2023-03-13T02:24:02;10.20;99.90
17172;DHT22;8701;50.150;8.756;2023-03-13T02:28:11;10.20;99.90
17172;DHT22;8701;50.150;8.756;2023-03-13T02:32:16;10.10;99.90
17172;DHT22;8701;50.150;8.756;2023-03-13T02:36:18;10.00;99.90
17172;DHT22;8701;50.150;8.756;2023-03-13T02:40:24;10.00;99.90
17172;DHT22;8701;50.150;8.756;2023-03-13T02:44:29;9.90;99.90
17172;DHT22;8701;50.150;8.756;2023-03-13T02:48:34;9.90;99.90
17172;DHT22;8701;50.150;8.756;2023-03-13T02:52:41;9.80;99.90
17172;DHT22;8701;50.150;8.756;2023-03-13T02:56:48;9.80;99.90
17172;DHT22;8701;50.150;8.756;2023-03-13T03:00:53;9.80;99.90
17172;DHT22;8701;50.150;8.756;2023-03-13T03:04:56;9.70;99.90
17172;DHT22;8701;50.150;8.756;2023-03-13T03:08:58;9.80;99.90
17172;DHT22;8701;50.150;8.756;2023-03-13T03:13:03;9.80;99.90
17172;DHT22;8701;50.150;8.756;2023-03-13T03:17:07;9.80;99.90
17172;DHT22;8701;50.150;8.756;2023-03-13T03:21:15;9.80;99.90
17172;DHT22;8701;50.150;8.756;2023-03-13T03:25:17;9.80;99.90
17172;DHT22;8701;50.150;8.756;2023-03-13T03:29:21;9.80;99.90
17172;DHT22;8701;50.150;8.756;2023-03-13T03:33:30;9.80;99.90
17172;DHT22;8701;50.150;8.756;2023-03-13T03:37:32;9.90;99.90
17172;DHT22;8701;50.150;8.756;2023-03-13T03:41:35;9.90;99.90
17172;DHT22;8701;50.150;8.756;2023-03-13T03:45:39;9.80;99.90
17172;DHT22;8701;50.150;8.756;2023-03-13T03:49:43;9.80;99.90
17172;DHT22;8701;50.150;8.756;2023-03-13T03:53:47;9.80;99.90
17172;DHT22;8701;50.150;8.756;2023-03-13T03:57:49;9.80;99.90
17172;DHT22;8701;50.150;8.756;2023-03-13T04:02:02;9.70;99.90
17172;DHT22;8701;50.150;8.756;2023-03-13T04:06:07;9.70;99.90
17172;DHT22;8701;50.150;8.756;2023-03-13T04:10:11;9.60;99.90
17172;DHT22;8701;50.150;8.756;2023-03-13T04:14:18;9.60;99.90
17172;DHT22;8701;50.150;8.756;2023-03-13T04:18:20;9.60;99.90
17172;DHT22;8701;50.150;8.756;2023-03-13T04:22:24;9.60;99.90
17172;DHT22;8701;50.150;8.756;2023-03-13T04:26:31;9.70;99.90
17172;DHT22;8701;50.150;8.756;2023-03-13T04:30:34;9.60;99.90
17172;DHT22;8701;50.150;8.756;2023-03-13T04:34:57;9.60;99.90
17172;DHT22;8701;50.150;8.756;2023-03-13T04:39:13;9.50;99.90
17172;DHT22;8701;50.150;8.756;2023-03-13T04:43:33;9.50;99.90
17172;DHT22;8701;50.150;8.756;2023-03-13T04:47:53;9.50;99.90
17172;DHT22;8701;50.150;8.756;2023-03-13T04:52:02;9.50;99.90
17172;DHT22;8701;50.150;8.756;2023-03-13T04:56:27;9.50;99.90
17172;DHT22;8701;50.150;8.756;2023-03-13T05:01:00;9.50;99.90
17172;DHT22;8701;50.150;8.756;2023-03-13T05:05:23;9.60;99.90
17172;DHT22;8701;50.150;8.756;2023-03-13T05:09:31;9.60;99.90
17172;DHT22;8701;50.150;8.756;2023-03-13T05:13:48;9.60;99.90
17172;DHT22;8701;50.150;8.756;2023-03-13T05:18:05;9.60;99.90
17172;DHT22;8701;50.150;8.756;2023-03-13T05:22:23;9.70;99.90
17172;DHT22;8701;50.150;8.756;2023-03-13T05:26:44;9.70;99.90
17172;DHT22;8701;50.150;8.756;2023-03-13T05:31:06;9.80;99.90
17172;DHT22;8701;50.150;8.756;2023-03-13T05:35:32;9.70;99.90
17172;DHT22;8701;50.150;8.756;2023-03-13T05:39:57;9.80;99.90
17172;DHT22;8701;50.150;8.756;2023-03-13T05:44:15;9.80;99.90
17172;DHT22;8701;50.150;8.756;2023-03-13T05:48:38;9.90;99.90
17172;DHT22;8701;50.150;8.756;2023-03-13T05:53:04;9.90;99.90
17172;DHT22;8701;50.150;8.756;2023-03-13T05:57:17;10.00;99.90
17172;DHT22;8701;50.150;8.756;2023-03-13T06:01:30;10.00;99.90
17172;DHT22;8701;50.150;8.756;2023-03-13T06:05:46;10.00;99.90
17172;DHT22;8701;50.150;8.756;2023-03-13T06:10:12;10.10;99.90
17172;DHT22;8701;50.150;8.756;2023-03-13T06:14:15;10.10;99.90
17172;DHT22;8701;50.150;8.756;2023-03-13T06:18:23;10.20;99.90
17172;DHT22;8701;50.150;8.756;2023-03-13T06:22:28;10.30;99.90
17172;DHT22;8701;50.150;8.756;2023-03-13T06:26:30;10.40;99.90
17172;DHT22;8701;50.150;8.756;2023-03-13T06:30:33;10.30;99.90
17172;DHT22;8701;50.150;8.756;2023-03-13T06:34:35;10.40;99.90
17172;DHT22;8701;50.150;8.756;2023-03-13T06:38:39;10.40;99.90
17172;DHT22;8701;50.150;8.756;2023-03-13T06:42:41;10.40;99.90
17172;DHT22;8701;50.150;8.756;2023-03-13T06:46:43;10.50;99.90
17172;DHT22;8701;50.150;8.756;2023-03-13T06:50:46;10.50;99.90
17172;DHT22;8701;50.150;8.756;2023-03-13T06:54:49;10.50;99.90
17172;DHT22;8701;50.150;8.756;2023-03-13T06:58:52;10.60;99.90
17172;DHT22;8701;50.150;8.756;2023-03-13T07:02:54;10.60;99.90
17172;DHT22;8701;50.150;8.756;2023-03-13T07:06:57;10.60;99.90
17172;DHT22;8701;50.150;8.756;2023-03-13T07:11:02;10.70;99.90
17172;DHT22;8701;50.150;8.756;2023-03-13T07:15:06;10.70;99.90
17172;DHT22;8701;50.150;8.756;2023-03-13T07:19:09;10.70;99.90
17172;DHT22;8701;50.150;8.756;2023-03-13T07:23:11;10.80;99.90
17172;DHT22;8701;50.150;8.756;2023-03-13T07:27:16;10.80;99.90
17172;DHT22;8701;50.150;8.756;2023-03-13T07:31:20;10.90;99.90
17172;DHT22;8701;50.150;8.756;2023-03-13T07:35:23;10.90;99.90
17172;DHT22;8701;50.150;8.756;2023-03-13T07:39:26;11.00;99.90
17172;DHT22;8701;50.150;8.756;2023-03-13T07:43:29;11.00;99.90
17172;DHT22;8701;50.150;8.756;2023-03-13T07:47:33;11.00;99.90
17172;DHT22;8701;50.150;8.756;2023-03-13T07:51:35;11.10;99.90
17172;DHT22;8701;50.150;8.756;2023-03-13T07:55:37;11.10;99.90
17172;DHT22;8701;50.150;8.756;2023-03-13T07:59:41;11.20;99.90
17172;DHT22;8701;50.150;8.756;2023-03-13T08:03:44;11.30;99.90
17172;DHT22;8701;50.150;8.756;2023-03-13T08:07:46;11.40;99.90
17172;DHT22;8701;50.150;8.756;2023-03-13T08:11:48;11.30;99.90
17172;DHT22;8701;50.150;8.756;2023-03-13T08:15:59;11.40;99.90
17172;DHT22;8701;50.150;8.756;2023-03-13T08:20:04;11.50;99.90
17172;DHT22;8701;50.150;8.756;2023-03-13T08:24:14;11.60;99.90
17172;DHT22;8701;50.150;8.756;2023-03-13T08:28:16;11.70;99.90
17172;DHT22;8701;50.150;8.756;2023-03-13T08:32:21;11.60;99.90
17172;DHT22;8701;50.150;8.756;2023-03-13T08:36:25;11.70;99.90
17172;DHT22;8701;50.150;8.756;2023-03-13T08:40:31;11.70;99.90
17172;DHT22;8701;50.150;8.756;2023-03-13T08:44:37;11.80;99.90
17172;DHT22;8701;50.150;8.756;2023-03-13T08:48:44;11.90;99.90
17172;DHT22;8701;50.150;8.756;2023-03-13T08:52:50;12.10;99.90
17172;DHT22;8701;50.150;8.756;2023-03-13T08:56:55;12.30;99.90
17172;DHT22;8701;50.150;8.756;2023-03-13T09:01:07;12.60;99.90
17172;DHT22;8701;50.150;8.756;2023-03-13T09:05:11;12.60;99.90
17172;DHT22;8701;50.150;8.756;2023-03-13T09:09:14;12.90;99.90
17172;DHT22;8701;50.150;8.756;2023-03-13T09:13:16;12.90;99.90
17172;DHT22;8701;50.150;8.756;2023-03-13T09:17:18;13.00;99.90
17172;DHT22;8701;50.150;8.756;2023-03-13T09:21:25;13.10;99.90
17172;DHT22;8701;50.150;8.756;2023-03-13T09:25:28;13.10;99.90
17172;DHT22;8701;50.150;8.756;2023-03-13T09:29:30;13.10;99.90
17172;DHT22;8701;50.150;8.756;2023-03-13T09:33:33;13.10;99.90
17172;DHT22;8701;50.150;8.756;2023-03-13T09:37:37;13.10;99.90
17172;DHT22;8701;50.150;8.756;2023-03-13T09:41:52;13.20;99.90
17172;DHT22;8701;50.150;8.756;2023-03-13T09:45:59;13.20;99.90
17172;DHT22;8701;50.150;8.756;2023-03-13T09:50:05;13.30;99.90
17172;DHT22;8701;50.150;8.756;2023-03-13T09:54:21;13.40;99.90
17172;DHT22;8701;50.150;8.756;2023-03-13T09:58:26;13.50;99.90
17172;DHT22;8701;50.150;8.756;2023-03-13T10:02:31;13.70;99.90
17172;DHT22;8701;50.150;8.756;2023-03-13T10:06:38;13.80;99.90
17172;DHT22;8701;50.150;8.756;2023-03-13T10:10:48;13.80;99.90
17172;DHT22;8701;50.150;8.756;2023-03-13T10:15:02;13.70;99.90
17172;DHT22;8701;50.150;8.756;2023-03-13T10:19:15;13.80;99.90
17172;DHT22;8701;50.150;8.756;2023-03-13T10:23:23;13.90;99.90
17172;DHT22;8701;50.150;8.756;2023-03-13T10:27:29;14.20;99.90
17172;DHT22;8701;50.150;8.756;2023-03-13T10:31:34;14.50;99.90
17172;DHT22;8701;50.150;8.756;2023-03-13T10:35:41;14.90;99.90
17172;DHT22;8701;50.150;8.756;2023-03-13T10:39:43;15.10;99.90
17172;DHT22;8701;50.150;8.756;2023-03-13T10:43:51;15.00;99.90
17172;DHT22;8701;50.150;8.756;2023-03-13T10:47:59;14.70;99.90
17172;DHT22;8701;50.150;8.756;2023-03-13T10:52:05;14.50;99.90
17172;DHT22;8701;50.150;8.756;2023-03-13T10:56:23;14.50;99.90
17172;DHT22;8701;50.150;8.756;2023-03-13T11:00:37;14.40;99.90
17172;DHT22;8701;50.150;8.756;2023-03-13T11:04:45;14.50;99.90
17172;DHT22;8701;50.150;8.756;2023-03-13T11:09:14;14.50;99.90
17172;DHT22;8701;50.150;8.756;2023-03-13T11:13:38;14.60;99.90
17172;DHT22;8701;50.150;8.756;2023-03-13T11:17:59;14.60;99.90
17172;DHT22;8701;50.150;8.756;2023-03-13T11:22:29;14.50;99.90
17172;DHT22;8701;50.150;8.756;2023-03-13T11:26:36;14.50;99.90
17172;DHT22;8701;50.150;8.756;2023-03-13T11:30:51;14.50;99.90
17172;DHT22;8701;50.150;8.756;2023-03-13T11:35:10;14.50;99.90
17172;DHT22;8701;50.150;8.756;2023-03-13T11:39:42;14.60;99.90
17172;DHT22;8701;50.150;8.756;2023-03-13T11:44:10;14.60;99.90
17172;DHT22;8701;50.150;8.756;2023-03-13T11:48:29;14.50;99.90
17172;DHT22;8701;50.150;8.756;2023-03-13T11:52:54;14.50;99.90
17172;DHT22;8701;50.150;8.756;2023-03-13T11:57:04;14.60;99.90
17172;DHT22;8701;50.150;8.756;2023-03-13T12:01:12;14.70;99.90
17172;DHT22;8701;50.150;8.756;2023-03-13T12:05:16;14.50;99.90
17172;DHT22;8701;50.150;8.756;2023-03-13T12:09:26;14.70;99.90
17172;DHT22;8701;50.150;8.756;2023-03-13T12:13:33;14.70;99.90
17172;DHT22;8701;50.150;8.756;2023-03-13T12:17:43;15.10;99.90
17172;DHT22;8701;50.150;8.756;2023-03-13T12:21:49;15.20;99.90
17172;DHT22;8701;50.150;8.756;2023-03-13T12:26:01;15.30;99.90
17172;DHT22;8701;50.150;8.756;2023-03-13T12:30:17;15.40;99.90
17172;DHT22;8701;50.150;8.756;2023-03-13T12:34:26;15.30;99.90
17172;DHT22;8701;50.150;8.756;2023-03-13T12:38:37;15.30;99.90
17172;DHT22;8701;50.150;8.756;2023-03-13T12:42:46;15.20;99.90
17172;DHT22;8701;50.150;8.756;2023-03-13T12:47:00;15.10;99.90
17172;DHT22;8701;50.150;8.756;2023-03-13T12:51:16;15.10;99.90
17172;DHT22;8701;50.150;8.756;2023-03-13T12:55:52;15.00;99.90
17172;DHT22;8701;50.150;8.756;2023-03-13T13:00:00;14.90;99.90
17172;DHT22;8701;50.150;8.756;2023-03-13T13:04:10;14.90;99.90
17172;DHT22;8701;50.150;8.756;2023-03-13T13:08:23;14.80;99.90
17172;DHT22;8701;50.150;8.756;2023-03-13T13:12:29;14.80;99.90
17172;DHT22;8701;50.150;8.756;2023-03-13T13:16:34;14.70;99.90
17172;DHT22;8701;50.150;8.756;2023-03-13T13:20:47;14.60;99.90
17172;DHT22;8701;50.150;8.756;2023-03-13T13:24:51;14.60;99.90
17172;DHT22;8701;50.150;8.756;2023-03-13T13:28:58;14.80;99.90
17172;DHT22;8701;50.150;8.756;2023-03-13T13:37:46;16.40;99.90
17172;DHT22;8701;50.150;8.756;2023-03-13T13:41:50;16.10;99.90
17172;DHT22;8701;50.150;8.756;2023-03-13T13:46:00;16.10;99.90
17172;DHT22;8701;50.150;8.756;2023-03-13T13:50:16;16.20;99.90
17172;DHT22;8701;50.150;8.756;2023-03-13T13:54:32;17.40;99.90
17172;DHT22;8701;50.150;8.756;2023-03-13T13:58:43;19.00;99.90
17172;DHT22;8701;50.150;8.756;2023-03-13T14:02:50;20.10;99.90
17172;DHT22;8701;50.150;8.756;2023-03-13T14:07:00;21.00;99.90
17172;DHT22;8701;50.150;8.756;2023-03-13T14:11:15;20.10;99.90
17172;DHT22;8701;50.150;8.756;2023-03-13T14:15:22;19.00;99.90
17172;DHT22;8701;50.150;8.756;2023-03-13T14:19:32;18.30;99.90
17172;DHT22;8701;50.150;8.756;2023-03-13T14:23:45;17.90;99.90
17172;DHT22;8701;50.150;8.756;2023-03-13T14:27:51;17.60;99.90
17172;DHT22;8701;50.150;8.756;2023-03-13T14:31:55;17.30;99.90
17172;DHT22;8701;50.150;8.756;2023-03-13T14:35:58;17.10;99.90
17172;DHT22;8701;50.150;8.756;2023-03-13T14:40:05;17.10;99.90
17172;DHT22;8701;50.150;8.756;2023-03-13T14:44:14;16.90;99.90
17172;DHT22;8701;50.150;8.756;2023-03-13T14:48:23;17.10;99.90
17172;DHT22;8701;50.150;8.756;2023-03-13T14:52:29;16.90;99.90
17172;DHT22;8701;50.150;8.756;2023-03-13T14:56:33;16.90;99.90
17172;DHT22;8701;50.150;8.756;2023-03-13T15:00:39;17.10;99.90
17172;DHT22;8701;50.150;8.756;2023-03-13T15:05:29;17.00;99.90
17172;DHT22;8701;50.150;8.756;2023-03-13T15:09:30;17.00;99.90
17172;DHT22;8701;50.150;8.756;2023-03-13T15:13:34;17.00;99.90
17172;DHT22;8701;50.150;8.756;2023-03-13T15:17:39;16.90;99.90
17172;DHT22;8701;50.150;8.756;2023-03-13T15:21:41;16.80;99.90
17172;DHT22;8701;50.150;8.756;2023-03-13T15:26:15;16.60;99.90
17172;DHT22;8701;50.150;8.756;2023-03-13T15:30:49;15.90;99.90
17172;DHT22;8701;50.150;8.756;2023-03-13T15:35:29;14.80;99.90
17172;DHT22;8701;50.150;8.756;2023-03-13T15:39:37;14.20;99.90
17172;DHT22;8701;50.150;8.756;2023-03-13T15:43:42;13.70;99.90
17172;DHT22;8701;50.150;8.756;2023-03-13T15:47:45;13.30;99.90
17172;DHT22;8701;50.150;8.756;2023-03-13T15:51:53;13.30;99.90
17172;DHT22;8701;50.150;8.756;2023-03-13T15:55:58;13.10;99.90
17172;DHT22;8701;50.150;8.756;2023-03-13T16:00:00;13.10;99.90
17172;DHT22;8701;50.150;8.756;2023-03-13T16:04:09;13.10;99.90
17172;DHT22;8701;50.150;8.756;2023-03-13T16:08:17;13.00;99.90
17172;DHT22;8701;50.150;8.756;2023-03-13T16:12:30;13.00;99.90
17172;DHT22;8701;50.150;8.756;2023-03-13T16:16:33;13.00;99.90
17172;DHT22;8701;50.150;8.756;2023-03-13T16:20:44;13.00;99.90
17172;DHT22;8701;50.150;8.756;2023-03-13T16:24:46;13.00;99.90
17172;DHT22;8701;50.150;8.756;2023-03-13T16:28:49;13.00;99.90
17172;DHT22;8701;50.150;8.756;2023-03-13T16:32:51;13.00;99.90
17172;DHT22;8701;50.150;8.756;2023-03-13T16:36:55;12.90;99.90
17172;DHT22;8701;50.150;8.756;2023-03-13T16:40:57;12.90;99.90
17172;DHT22;8701;50.150;8.756;2023-03-13T16:44:59;12.90;99.90
17172;DHT22;8701;50.150;8.756;2023-03-13T16:49:02;12.90;99.90
17172;DHT22;8701;50.150;8.756;2023-03-13T16:53:06;12.80;99.90
17172;DHT22;8701;50.150;8.756;2023-03-13T16:57:09;12.70;99.90
17172;DHT22;8701;50.150;8.756;2023-03-13T17:01:12;12.60;99.90
17172;DHT22;8701;50.150;8.756;2023-03-13T17:05:15;12.50;99.90
17172;DHT22;8701;50.150;8.756;2023-03-13T17:09:18;12.50;99.90
17172;DHT22;8701;50.150;8.756;2023-03-13T17:13:22;12.50;99.90
17172;DHT22;8701;50.150;8.756;2023-03-13T17:17:24;12.50;99.90
17172;DHT22;8701;50.150;8.756;2023-03-13T17:21:28;12.50;99.90
17172;DHT22;8701;50.150;8.756;2023-03-13T17:25:33;12.50;99.90
17172;DHT22;8701;50.150;8.756;2023-03-13T17:29:35;12.50;99.90
17172;DHT22;8701;50.150;8.756;2023-03-13T17:33:38;12.50;99.90
17172;DHT22;8701;50.150;8.756;2023-03-13T17:37:40;12.50;99.90
17172;DHT22;8701;50.150;8.756;2023-03-13T17:41:45;12.40;99.90
17172;DHT22;8701;50.150;8.756;2023-03-13T17:45:47;12.40;99.90
17172;DHT22;8701;50.150;8.756;2023-03-13T17:49:50;12.40;99.90
17172;DHT22;8701;50.150;8.756;2023-03-13T17:53:53;12.40;99.90
17172;DHT22;8701;50.150;8.756;2023-03-13T17:57:57;12.40;99.90
17172;DHT22;8701;50.150;8.756;2023-03-13T18:01:59;12.40;99.90
17172;DHT22;8701;50.150;8.756;2023-03-13T18:06:01;12.30;99.90
17172;DHT22;8701;50.150;8.756;2023-03-13T18:10:08;12.30;99.90
17172;DHT22;8701;50.150;8.756;2023-03-13T18:14:13;12.30;99.90
17172;DHT22;8701;50.150;8.756;2023-03-13T18:18:16;12.30;99.90
17172;DHT22;8701;50.150;8.756;2023-03-13T18:22:19;12.30;99.90
17172;DHT22;8701;50.150;8.756;2023-03-13T18:26:25;12.30;99.90
17172;DHT22;8701;50.150;8.756;2023-03-13T18:30:30;12.30;99.90
17172;DHT22;8701;50.150;8.756;2023-03-13T18:34:33;12.30;99.90
17172;DHT22;8701;50.150;8.756;2023-03-13T18:38:36;12.30;99.90
17172;DHT22;8701;50.150;8.756;2023-03-13T18:42:38;12.30;99.90
17172;DHT22;8701;50.150;8.756;2023-03-13T18:46:42;12.30;99.90
17172;DHT22;8701;50.150;8.756;2023-03-13T18:50:44;12.30;99.90
17172;DHT22;8701;50.150;8.756;2023-03-13T18:54:46;12.30;99.90
17172;DHT22;8701;50.150;8.756;2023-03-13T18:58:50;12.30;99.90
17172;DHT22;8701;50.150;8.756;2023-03-13T19:02:54;12.30;99.90
17172;DHT22;8701;50.150;8.756;2023-03-13T19:06:56;12.30;99.90
17172;DHT22;8701;50.150;8.756;2023-03-13T19:10:58;12.20;99.90
17172;DHT22;8701;50.150;8.756;2023-03-13T19:15:01;12.20;99.90
17172;DHT22;8701;50.150;8.756;2023-03-13T19:19:10;12.20;99.90
17172;DHT22;8701;50.150;8.756;2023-03-13T19:23:12;12.20;99.90
17172;DHT22;8701;50.150;8.756;2023-03-13T19:27:15;12.20;99.90
17172;DHT22;8701;50.150;8.756;2023-03-13T19:31:17;12.20;99.90
17172;DHT22;8701;50.150;8.756;2023-03-13T19:35:21;12.30;99.90
17172;DHT22;8701;50.150;8.756;2023-03-13T19:39:25;12.20;99.90
17172;DHT22;8701;50.150;8.756;2023-03-13T19:43:27;12.20;99.90
17172;DHT22;8701;50.150;8.756;2023-03-13T19:47:29;12.20;99.90
17172;DHT22;8701;50.150;8.756;2023-03-13T19:51:32;12.20;99.90
17172;DHT22;8701;50.150;8.756;2023-03-13T19:55:35;12.10;99.90
17172;DHT22;8701;50.150;8.756;2023-03-13T19:59:38;12.10;99.90
17172;DHT22;8701;50.150;8.756;2023-03-13T20:03:40;12.10;99.90
17172;DHT22;8701;50.150;8.756;2023-03-13T20:07:44;12.00;99.90
17172;DHT22;8701;50.150;8.756;2023-03-13T20:11:46;12.00;99.90
17172;DHT22;8701;50.150;8.756;2023-03-13T20:15:48;11.90;99.90
17172;DHT22;8701;50.150;8.756;2023-03-13T20:19:51;11.90;99.90
17172;DHT22;8701;50.150;8.756;2023-03-13T20:23:54;11.90;99.90
17172;DHT22;8701;50.150;8.756;2023-03-13T20:27:57;11.90;99.90
17172;DHT22;8701;50.150;8.756;2023-03-13T20:31:59;11.80;99.90
17172;DHT22;8701;50.150;8.756;2023-03-13T20:36:07;11.70;99.90
17172;DHT22;8701;50.150;8.756;2023-03-13T20:40:12;11.70;99.90
17172;DHT22;8701;50.150;8.756;2023-03-13T20:44:14;11.60;99.90
17172;DHT22;8701;50.150;8.756;2023-03-13T20:48:16;11.60;99.90
17172;DHT22;8701;50.150;8.756;2023-03-13T20:52:19;11.50;99.90
17172;DHT22;8701;50.150;8.756;2023-03-13T20:56:23;11.50;99.90
17172;DHT22;8701;50.150;8.756;2023-03-13T21:00:25;11.40;99.90
17172;DHT22;8701;50.150;8.756;2023-03-13T21:04:27;11.30;99.90
17172;DHT22;8701;50.150;8.756;2023-03-13T21:08:29;11.20;99.90
17172;DHT22;8701;50.150;8.756;2023-03-13T21:12:33;11.20;99.90
17172;DHT22;8701;50.150;8.756;2023-03-13T21:16:36;11.10;99.90
17172;DHT22;8701;50.150;8.756;2023-03-13T21:20:38;11.00;99.90
17172;DHT22;8701;50.150;8.756;2023-03-13T21:24:40;11.00;99.90
17172;DHT22;8701;50.150;8.756;2023-03-13T21:28:46;11.00;99.90
17172;DHT22;8701;50.150;8.756;2023-03-13T21:32:49;10.90;99.90
17172;DHT22;8701;50.150;8.756;2023-03-13T21:36:51;10.90;99.90
17172;DHT22;8701;50.150;8.756;2023-03-13T21:40:53;10.90;99.90
17172;DHT22;8701;50.150;8.756;2023-03-13T21:44:57;10.90;99.90
17172;DHT22;8701;50.150;8.756;2023-03-13T21:49:00;10.90;99.90
17172;DHT22;8701;50.150;8.756;2023-03-13T21:53:03;10.90;99.90
17172;DHT22;8701;50.150;8.756;2023-03-13T21:57:05;10.80;99.90
17172;DHT22;8701;50.150;8.756;2023-03-13T22:01:09;10.80;99.90
17172;DHT22;8701;50.150;8.756;2023-03-13T22:05:12;10.70;99.90
17172;DHT22;8701;50.150;8.756;2023-03-13T22:09:14;10.70;99.90
17172;DHT22;8701;50.150;8.756;2023-03-13T22:13:16;10.70;99.90
17172;DHT22;8701;50.150;8.756;2023-03-13T22:17:20;10.70;99.90
17172;DHT22;8701;50.150;8.756;2023-03-13T22:21:23;10.60;99.90
17172;DHT22;8701;50.150;8.756;2023-03-13T22:25:25;10.60;99.90
17172;DHT22;8701;50.150;8.756;2023-03-13T22:29:27;10.60;99.90
17172;DHT22;8701;50.150;8.756;2023-03-13T22:33:33;10.60;99.90
17172;DHT22;8701;50.150;8.756;2023-03-13T22:37:36;10.60;99.90
17172;DHT22;8701;50.150;8.756;2023-03-13T22:41:38;10.60;99.90
17172;DHT22;8701;50.150;8.756;2023-03-13T22:45:40;10.60;99.90
17172;DHT22;8701;50.150;8.756;2023-03-13T22:49:44;10.50;99.90
17172;DHT22;8701;50.150;8.756;2023-03-13T22:53:46;10.50;99.90
17172;DHT22;8701;50.150;8.756;2023-03-13T22:57:48;10.50;99.90
17172;DHT22;8701;50.150;8.756;2023-03-13T23:01:50;10.50;99.90
17172;DHT22;8701;50.150;8.756;2023-03-13T23:05:54;10.50;99.90
17172;DHT22;8701;50.150;8.756;2023-03-13T23:09:57;10.50;99.90
17172;DHT22;8701;50.150;8.756;2023-03-13T23:13:59;10.50;99.90
17172;DHT22;8701;50.150;8.756;2023-03-13T23:18:02;10.50;99.90
17172;DHT22;8701;50.150;8.756;2023-03-13T23:22:05;10.50;99.90
17172;DHT22;8701;50.150;8.756;2023-03-13T23:26:10;10.50;99.90
17172;DHT22;8701;50.150;8.756;2023-03-13T23:30:14;10.50;99.90
17172;DHT22;8701;50.150;8.756;2023-03-13T23:34:16;10.50;99.90
17172;DHT22;8701;50.150;8.756;2023-03-13T23:38:23;10.50;99.90
17172;DHT22;8701;50.150;8.756;2023-03-13T23:42:26;10.50;99.90
17172;DHT22;8701;50.150;8.756;2023-03-13T23:46:28;10.40;99.90
17172;DHT22;8701;50.150;8.756;2023-03-13T23:50:30;10.40;99.90
17172;DHT22;8701;50.150;8.756;2023-03-13T23:54:34;10.40;99.90
17172;DHT22;8701;50.150;8.756;2023-03-13T23:58:37;10.40;99.90
